sensor_id;sensor_type;location;lat;lon;timestamp;temperature;humidity
15967;DHT22;15175;48.154;11.534;2023-06-04T00:01:29;17.30;98.60
15967;DHT22;15175;48.154;11.534;2023-06-04T00:03:57;17.30;98.70
15967;DHT22;15175;48.154;11.534;2023-06-04T00:06:24;17.30;98.50
15967;DHT22;15175;48.154;11.534;2023-06-04T00:08:51;17.20;98.10
15967;DHT22;15175;48.154;11.534;2023-06-04T00:11:18;17.20;98.00
15967;DHT22;15175;48.154;11.534;2023-06-04T00:13:47;17.10;97.90
15967;DHT22;15175;48.154;11.534;2023-06-04T00:16:14;17.00;97.80
15967;DHT22;15175;48.154;11.534;2023-06-04T00:18:41;17.00;98.10
15967;DHT22;15175;48.154;11.534;2023-06-04T00:21:08;16.90;97.50
15967;DHT22;15175;48.154;11.534;2023-06-04T00:23:35;16.80;97.50
15967;DHT22;15175;48.154;11.534;2023-06-04T00:26:03;16.70;97.60
15967;DHT22;15175;48.154;11.534;2023-06-04T00:28:30;16.70;97.60
15967;DHT22;15175;48.154;11.534;2023-06-04T00:30:59;16.40;97.50
15967;DHT22;15175;48.154;11.534;2023-06-04T00:33:26;16.60;97.60
15967;DHT22;15175;48.154;11.534;2023-06-04T00:35:53;16.60;97.40
15967;DHT22;15175;48.154;11.534;2023-06-04T00:38:20;16.50;97.50
15967;DHT22;15175;48.154;11.534;2023-06-04T00:40:47;16.50;97.40
15967;DHT22;15175;48.154;11.534;2023-06-04T00:43:15;16.50;97.70
15967;DHT22;15175;48.154;11.534;2023-06-04T00:45:42;16.50;97.40
15967;DHT22;15175;48.154;11.534;2023-06-04T00:48:11;16.90;97.50
15967;DHT22;15175;48.154;11.534;2023-06-04T00:50:39;16.40;97.30
15967;DHT22;15175;48.154;11.534;2023-06-04T00:53:06;16.40;97.40
15967;DHT22;15175;48.154;11.534;2023-06-04T00:55:34;16.40;97.30
15967;DHT22;15175;48.154;11.534;2023-06-04T00:58:01;16.40;97.30
15967;DHT22;15175;48.154;11.534;2023-06-04T01:00:38;16.40;97.20
15967;DHT22;15175;48.154;11.534;2023-06-04T01:03:16;16.30;97.10
15967;DHT22;15175;48.154;11.534;2023-06-04T01:05:51;16.40;97.10
15967;DHT22;15175;48.154;11.534;2023-06-04T01:08:37;16.40;96.90
15967;DHT22;15175;48.154;11.534;2023-06-04T01:11:08;16.30;97.00
15967;DHT22;15175;48.154;11.534;2023-06-04T01:13:35;16.30;96.90
15967;DHT22;15175;48.154;11.534;2023-06-04T01:16:03;16.30;96.90
15967;DHT22;15175;48.154;11.534;2023-06-04T01:18:31;16.30;96.90
15967;DHT22;15175;48.154;11.534;2023-06-04T01:21:06;16.30;96.90
15967;DHT22;15175;48.154;11.534;2023-06-04T01:23:43;16.30;96.90
15967;DHT22;15175;48.154;11.534;2023-06-04T01:26:12;16.20;96.90
15967;DHT22;15175;48.154;11.534;2023-06-04T01:28:40;16.30;96.90
15967;DHT22;15175;48.154;11.534;2023-06-04T01:31:09;16.30;96.90
15967;DHT22;15175;48.154;11.534;2023-06-04T01:33:36;15.90;97.00
15967;DHT22;15175;48.154;11.534;2023-06-04T01:36:05;16.20;97.00
15967;DHT22;15175;48.154;11.534;2023-06-04T01:38:35;16.20;97.10
15967;DHT22;15175;48.154;11.534;2023-06-04T01:41:03;16.10;97.10
15967;DHT22;15175;48.154;11.534;2023-06-04T01:43:30;16.10;97.20
15967;DHT22;15175;48.154;11.534;2023-06-04T01:46:00;16.10;97.30
15967;DHT22;15175;48.154;11.534;2023-06-04T01:48:27;16.00;97.30
15967;DHT22;15175;48.154;11.534;2023-06-04T01:50:54;16.00;97.20
15967;DHT22;15175;48.154;11.534;2023-06-04T01:53:23;16.00;97.20
15967;DHT22;15175;48.154;11.534;2023-06-04T01:55:50;16.00;97.20
15967;DHT22;15175;48.154;11.534;2023-06-04T01:58:19;15.90;97.30
15967;DHT22;15175;48.154;11.534;2023-06-04T02:00:52;15.90;97.40
15967;DHT22;15175;48.154;11.534;2023-06-04T02:03:20;15.80;97.30
15967;DHT22;15175;48.154;11.534;2023-06-04T02:05:48;15.80;97.50
15967;DHT22;15175;48.154;11.534;2023-06-04T02:08:17;15.70;97.60
15967;DHT22;15175;48.154;11.534;2023-06-04T02:10:47;15.80;97.70
15967;DHT22;15175;48.154;11.534;2023-06-04T02:13:15;15.80;97.70
15967;DHT22;15175;48.154;11.534;2023-06-04T02:15:42;15.70;97.60
15967;DHT22;15175;48.154;11.534;2023-06-04T02:18:14;15.70;97.60
15967;DHT22;15175;48.154;11.534;2023-06-04T02:20:43;15.70;97.60
15967;DHT22;15175;48.154;11.534;2023-06-04T02:23:11;15.60;97.70
15967;DHT22;15175;48.154;11.534;2023-06-04T02:25:38;15.60;97.70
15967;DHT22;15175;48.154;11.534;2023-06-04T02:28:08;15.60;97.70
15967;DHT22;15175;48.154;11.534;2023-06-04T02:30:36;15.60;97.70
15967;DHT22;15175;48.154;11.534;2023-06-04T02:33:03;15.60;97.60
15967;DHT22;15175;48.154;11.534;2023-06-04T02:35:32;15.60;97.70
15967;DHT22;15175;48.154;11.534;2023-06-04T02:37:59;15.60;97.60
15967;DHT22;15175;48.154;11.534;2023-06-04T02:40:27;15.50;97.50
15967;DHT22;15175;48.154;11.534;2023-06-04T02:42:55;15.50;97.70
15967;DHT22;15175;48.154;11.534;2023-06-04T02:45:24;15.50;97.70
15967;DHT22;15175;48.154;11.534;2023-06-04T02:47:51;15.30;97.60
15967;DHT22;15175;48.154;11.534;2023-06-04T02:50:18;15.50;97.60
15967;DHT22;15175;48.154;11.534;2023-06-04T02:52:45;15.40;97.70
15967;DHT22;15175;48.154;11.534;2023-06-04T02:55:12;15.40;97.70
15967;DHT22;15175;48.154;11.534;2023-06-04T02:57:41;15.30;97.70
15967;DHT22;15175;48.154;11.534;2023-06-04T03:00:09;15.30;97.80
15967;DHT22;15175;48.154;11.534;2023-06-04T03:02:40;15.30;97.90
15967;DHT22;15175;48.154;11.534;2023-06-04T03:05:10;15.30;97.80
15967;DHT22;15175;48.154;11.534;2023-06-04T03:07:39;15.30;97.60
15967;DHT22;15175;48.154;11.534;2023-06-04T03:10:09;15.30;97.50
15967;DHT22;15175;48.154;11.534;2023-06-04T03:12:36;15.30;97.50
15967;DHT22;15175;48.154;11.534;2023-06-04T03:15:05;15.20;97.40
15967;DHT22;15175;48.154;11.534;2023-06-04T03:17:32;15.30;97.50
15967;DHT22;15175;48.154;11.534;2023-06-04T03:20:01;15.30;97.90
15967;DHT22;15175;48.154;11.534;2023-06-04T03:22:30;15.20;98.10
15967;DHT22;15175;48.154;11.534;2023-06-04T03:24:59;15.10;98.20
15967;DHT22;15175;48.154;11.534;2023-06-04T03:27:26;15.10;98.80
15967;DHT22;15175;48.154;11.534;2023-06-04T03:29:53;15.50;99.00
15967;DHT22;15175;48.154;11.534;2023-06-04T03:32:20;15.10;99.20
15967;DHT22;15175;48.154;11.534;2023-06-04T03:34:48;15.10;99.40
15967;DHT22;15175;48.154;11.534;2023-06-04T03:37:18;15.10;99.50
15967;DHT22;15175;48.154;11.534;2023-06-04T03:39:45;15.00;99.50
15967;DHT22;15175;48.154;11.534;2023-06-04T03:42:16;15.00;99.80
15967;DHT22;15175;48.154;11.534;2023-06-04T03:44:43;15.00;99.90
15967;DHT22;15175;48.154;11.534;2023-06-04T03:47:13;15.10;99.90
15967;DHT22;15175;48.154;11.534;2023-06-04T03:49:41;15.00;99.90
15967;DHT22;15175;48.154;11.534;2023-06-04T03:52:08;14.90;99.90
15967;DHT22;15175;48.154;11.534;2023-06-04T03:54:39;14.40;99.90
15967;DHT22;15175;48.154;11.534;2023-06-04T03:57:06;14.90;99.90
15967;DHT22;15175;48.154;11.534;2023-06-04T03:59:33;14.90;99.90
15967;DHT22;15175;48.154;11.534;2023-06-04T04:02:01;14.70;99.90
15967;DHT22;15175;48.154;11.534;2023-06-04T04:04:29;14.60;99.90
15967;DHT22;15175;48.154;11.534;2023-06-04T04:06:56;14.70;99.90
15967;DHT22;15175;48.154;11.534;2023-06-04T04:09:23;14.70;99.90
15967;DHT22;15175;48.154;11.534;2023-06-04T04:11:52;14.70;99.90
15967;DHT22;15175;48.154;11.534;2023-06-04T04:14:20;14.70;99.90
15967;DHT22;15175;48.154;11.534;2023-06-04T04:16:47;14.70;99.90
15967;DHT22;15175;48.154;11.534;2023-06-04T04:19:14;14.70;99.90
15967;DHT22;15175;48.154;11.534;2023-06-04T04:21:42;14.60;99.90
15967;DHT22;15175;48.154;11.534;2023-06-04T04:24:22;14.60;99.90
15967;DHT22;15175;48.154;11.534;2023-06-04T04:26:51;14.60;99.90
15967;DHT22;15175;48.154;11.534;2023-06-04T04:29:20;14.60;99.90
15967;DHT22;15175;48.154;11.534;2023-06-04T04:31:49;14.60;99.90
15967;DHT22;15175;48.154;11.534;2023-06-04T04:34:17;14.70;99.90
15967;DHT22;15175;48.154;11.534;2023-06-04T04:36:47;14.70;99.90
15967;DHT22;15175;48.154;11.534;2023-06-04T04:39:18;14.70;99.90
15967;DHT22;15175;48.154;11.534;2023-06-04T04:41:46;14.70;99.90
15967;DHT22;15175;48.154;11.534;2023-06-04T04:44:15;14.70;99.90
15967;DHT22;15175;48.154;11.534;2023-06-04T04:46:42;14.70;99.90
15967;DHT22;15175;48.154;11.534;2023-06-04T04:49:09;14.70;99.90
15967;DHT22;15175;48.154;11.534;2023-06-04T04:51:37;14.70;99.90
15967;DHT22;15175;48.154;11.534;2023-06-04T04:54:04;14.70;99.90
15967;DHT22;15175;48.154;11.534;2023-06-04T04:56:34;14.80;99.90
15967;DHT22;15175;48.154;11.534;2023-06-04T04:59:02;14.80;99.90
15967;DHT22;15175;48.154;11.534;2023-06-04T05:01:31;14.80;99.90
15967;DHT22;15175;48.154;11.534;2023-06-04T05:03:59;14.80;99.90
15967;DHT22;15175;48.154;11.534;2023-06-04T05:06:26;14.90;99.90
15967;DHT22;15175;48.154;11.534;2023-06-04T05:08:54;14.90;99.70
15967;DHT22;15175;48.154;11.534;2023-06-04T05:11:21;14.90;99.80
15967;DHT22;15175;48.154;11.534;2023-06-04T05:13:48;14.90;99.10
15967;DHT22;15175;48.154;11.534;2023-06-04T05:16:15;14.80;99.40
15967;DHT22;15175;48.154;11.534;2023-06-04T05:18:48;14.80;99.10
15967;DHT22;15175;48.154;11.534;2023-06-04T05:21:21;14.80;99.60
15967;DHT22;15175;48.154;11.534;2023-06-04T05:23:54;14.80;99.80
15967;DHT22;15175;48.154;11.534;2023-06-04T05:26:25;14.90;99.90
15967;DHT22;15175;48.154;11.534;2023-06-04T05:28:57;15.00;99.70
15967;DHT22;15175;48.154;11.534;2023-06-04T05:31:26;15.10;99.70
15967;DHT22;15175;48.154;11.534;2023-06-04T05:33:57;15.20;99.40
15967;DHT22;15175;48.154;11.534;2023-06-04T05:36:29;15.30;99.10
15967;DHT22;15175;48.154;11.534;2023-06-04T05:38:59;15.30;99.00
15967;DHT22;15175;48.154;11.534;2023-06-04T05:41:33;15.40;99.20
15967;DHT22;15175;48.154;11.534;2023-06-04T05:44:02;15.60;98.50
15967;DHT22;15175;48.154;11.534;2023-06-04T05:46:29;15.70;98.30
15967;DHT22;15175;48.154;11.534;2023-06-04T05:48:58;15.80;98.20
15967;DHT22;15175;48.154;11.534;2023-06-04T05:51:25;16.00;98.00
15967;DHT22;15175;48.154;11.534;2023-06-04T05:53:53;16.20;98.20
15967;DHT22;15175;48.154;11.534;2023-06-04T05:56:20;16.60;97.30
15967;DHT22;15175;48.154;11.534;2023-06-04T05:58:52;16.80;97.00
15967;DHT22;15175;48.154;11.534;2023-06-04T06:01:21;17.20;96.50
15967;DHT22;15175;48.154;11.534;2023-06-04T06:03:49;17.40;96.40
15967;DHT22;15175;48.154;11.534;2023-06-04T06:06:18;17.50;96.30
15967;DHT22;15175;48.154;11.534;2023-06-04T06:08:46;17.70;96.10
15967;DHT22;15175;48.154;11.534;2023-06-04T06:11:15;18.00;95.50
15967;DHT22;15175;48.154;11.534;2023-06-04T06:13:42;18.20;95.40
15967;DHT22;15175;48.154;11.534;2023-06-04T06:16:10;18.50;94.40
15967;DHT22;15175;48.154;11.534;2023-06-04T06:18:38;18.90;94.10
15967;DHT22;15175;48.154;11.534;2023-06-04T06:21:05;19.10;93.60
15967;DHT22;15175;48.154;11.534;2023-06-04T06:23:34;19.20;93.40
15967;DHT22;15175;48.154;11.534;2023-06-04T06:26:02;19.30;93.00
15967;DHT22;15175;48.154;11.534;2023-06-04T06:28:36;19.50;93.40
15967;DHT22;15175;48.154;11.534;2023-06-04T06:31:04;19.70;92.90
15967;DHT22;15175;48.154;11.534;2023-06-04T06:33:31;19.80;92.90
15967;DHT22;15175;48.154;11.534;2023-06-04T06:35:58;20.00;92.70
15967;DHT22;15175;48.154;11.534;2023-06-04T06:38:26;20.20;92.20
15967;DHT22;15175;48.154;11.534;2023-06-04T06:40:55;20.40;92.10
15967;DHT22;15175;48.154;11.534;2023-06-04T06:43:22;20.60;92.10
15967;DHT22;15175;48.154;11.534;2023-06-04T06:45:49;20.60;91.60
15967;DHT22;15175;48.154;11.534;2023-06-04T06:48:16;20.70;91.50
15967;DHT22;15175;48.154;11.534;2023-06-04T06:50:43;20.70;91.20
15967;DHT22;15175;48.154;11.534;2023-06-04T06:53:10;20.80;91.10
15967;DHT22;15175;48.154;11.534;2023-06-04T06:55:37;20.80;91.30
15967;DHT22;15175;48.154;11.534;2023-06-04T06:58:06;20.80;90.70
15967;DHT22;15175;48.154;11.534;2023-06-04T07:00:33;20.80;91.10
15967;DHT22;15175;48.154;11.534;2023-06-04T07:03:00;20.90;91.10
15967;DHT22;15175;48.154;11.534;2023-06-04T07:05:28;21.10;90.80
15967;DHT22;15175;48.154;11.534;2023-06-04T07:07:55;21.20;90.80
15967;DHT22;15175;48.154;11.534;2023-06-04T07:10:24;21.20;90.90
15967;DHT22;15175;48.154;11.534;2023-06-04T07:12:51;21.20;91.10
15967;DHT22;15175;48.154;11.534;2023-06-04T07:15:20;21.30;90.80
15967;DHT22;15175;48.154;11.534;2023-06-04T07:17:47;21.50;90.80
15967;DHT22;15175;48.154;11.534;2023-06-04T07:20:14;21.70;91.00
15967;DHT22;15175;48.154;11.534;2023-06-04T07:22:42;22.00;90.50
15967;DHT22;15175;48.154;11.534;2023-06-04T07:25:09;22.10;90.20
15967;DHT22;15175;48.154;11.534;2023-06-04T07:27:36;22.20;90.00
15967;DHT22;15175;48.154;11.534;2023-06-04T07:30:05;22.30;90.00
15967;DHT22;15175;48.154;11.534;2023-06-04T07:32:34;22.40;90.00
15967;DHT22;15175;48.154;11.534;2023-06-04T07:35:02;22.40;90.20
15967;DHT22;15175;48.154;11.534;2023-06-04T07:37:29;22.60;90.00
15967;DHT22;15175;48.154;11.534;2023-06-04T07:39:56;22.70;90.10
15967;DHT22;15175;48.154;11.534;2023-06-04T07:42:23;22.80;90.30
15967;DHT22;15175;48.154;11.534;2023-06-04T07:44:50;23.10;88.70
15967;DHT22;15175;48.154;11.534;2023-06-04T07:47:17;23.30;87.80
15967;DHT22;15175;48.154;11.534;2023-06-04T07:49:46;23.30;87.80
15967;DHT22;15175;48.154;11.534;2023-06-04T07:52:13;23.40;87.70
15967;DHT22;15175;48.154;11.534;2023-06-04T07:54:40;23.40;87.60
15967;DHT22;15175;48.154;11.534;2023-06-04T07:57:08;23.50;87.60
15967;DHT22;15175;48.154;11.534;2023-06-04T07:59:35;23.50;87.60
15967;DHT22;15175;48.154;11.534;2023-06-04T08:02:03;23.70;87.40
15967;DHT22;15175;48.154;11.534;2023-06-04T08:04:30;23.90;86.60
15967;DHT22;15175;48.154;11.534;2023-06-04T08:06:59;23.80;87.40
15967;DHT22;15175;48.154;11.534;2023-06-04T08:09:26;24.10;86.80
15967;DHT22;15175;48.154;11.534;2023-06-04T08:11:53;24.30;85.70
15967;DHT22;15175;48.154;11.534;2023-06-04T08:14:21;24.40;85.30
15967;DHT22;15175;48.154;11.534;2023-06-04T08:16:48;24.50;84.60
15967;DHT22;15175;48.154;11.534;2023-06-04T08:19:15;24.50;85.00
15967;DHT22;15175;48.154;11.534;2023-06-04T08:21:42;24.40;84.60
15967;DHT22;15175;48.154;11.534;2023-06-04T08:24:12;24.60;85.30
15967;DHT22;15175;48.154;11.534;2023-06-04T08:26:39;24.70;84.40
15967;DHT22;15175;48.154;11.534;2023-06-04T08:29:06;24.90;85.20
15967;DHT22;15175;48.154;11.534;2023-06-04T08:31:34;25.30;83.40
15967;DHT22;15175;48.154;11.534;2023-06-04T08:34:01;25.50;81.90
15967;DHT22;15175;48.154;11.534;2023-06-04T08:36:30;25.70;82.00
15967;DHT22;15175;48.154;11.534;2023-06-04T08:38:58;25.80;80.90
15967;DHT22;15175;48.154;11.534;2023-06-04T08:41:29;25.80;80.40
15967;DHT22;15175;48.154;11.534;2023-06-04T08:43:57;26.00;81.00
15967;DHT22;15175;48.154;11.534;2023-06-04T08:46:26;26.10;81.20
15967;DHT22;15175;48.154;11.534;2023-06-04T08:48:57;26.30;79.10
15967;DHT22;15175;48.154;11.534;2023-06-04T08:51:26;26.40;79.90
15967;DHT22;15175;48.154;11.534;2023-06-04T08:53:54;26.60;78.30
15967;DHT22;15175;48.154;11.534;2023-06-04T08:56:23;26.70;77.80
15967;DHT22;15175;48.154;11.534;2023-06-04T08:58:51;26.60;77.60
15967;DHT22;15175;48.154;11.534;2023-06-04T09:01:19;26.70;77.70
15967;DHT22;15175;48.154;11.534;2023-06-04T09:03:47;26.40;78.10
15967;DHT22;15175;48.154;11.534;2023-06-04T09:06:14;26.20;78.30
15967;DHT22;15175;48.154;11.534;2023-06-04T09:08:43;25.50;78.50
15967;DHT22;15175;48.154;11.534;2023-06-04T09:11:13;25.90;80.10
15967;DHT22;15175;48.154;11.534;2023-06-04T09:13:43;26.10;79.10
15967;DHT22;15175;48.154;11.534;2023-06-04T09:16:15;26.20;78.30
15967;DHT22;15175;48.154;11.534;2023-06-04T09:18:42;26.20;78.80
15967;DHT22;15175;48.154;11.534;2023-06-04T09:21:10;26.10;78.60
15967;DHT22;15175;48.154;11.534;2023-06-04T09:23:40;26.30;80.10
15967;DHT22;15175;48.154;11.534;2023-06-04T09:26:11;26.40;78.40
15967;DHT22;15175;48.154;11.534;2023-06-04T09:28:40;26.60;78.10
15967;DHT22;15175;48.154;11.534;2023-06-04T09:31:08;26.90;77.10
15967;DHT22;15175;48.154;11.534;2023-06-04T09:33:44;27.10;77.50
15967;DHT22;15175;48.154;11.534;2023-06-04T09:36:12;27.40;76.20
15967;DHT22;15175;48.154;11.534;2023-06-04T09:38:39;27.30;75.90
15967;DHT22;15175;48.154;11.534;2023-06-04T09:41:12;27.30;76.00
15967;DHT22;15175;48.154;11.534;2023-06-04T09:43:40;27.50;75.00
15967;DHT22;15175;48.154;11.534;2023-06-04T09:46:12;27.50;74.20
15967;DHT22;15175;48.154;11.534;2023-06-04T09:48:41;27.10;75.20
15967;DHT22;15175;48.154;11.534;2023-06-04T09:51:11;27.10;74.80
15967;DHT22;15175;48.154;11.534;2023-06-04T09:53:39;27.00;74.30
15967;DHT22;15175;48.154;11.534;2023-06-04T09:56:08;27.00;75.30
15967;DHT22;15175;48.154;11.534;2023-06-04T09:58:38;27.20;74.50
15967;DHT22;15175;48.154;11.534;2023-06-04T10:01:05;27.10;74.20
15967;DHT22;15175;48.154;11.534;2023-06-04T10:03:37;27.00;73.90
15967;DHT22;15175;48.154;11.534;2023-06-04T10:06:07;26.90;75.40
15967;DHT22;15175;48.154;11.534;2023-06-04T10:08:39;27.00;73.40
15967;DHT22;15175;48.154;11.534;2023-06-04T10:11:09;26.90;73.20
15967;DHT22;15175;48.154;11.534;2023-06-04T10:13:43;26.60;73.10
15967;DHT22;15175;48.154;11.534;2023-06-04T10:16:12;26.60;73.40
15967;DHT22;15175;48.154;11.534;2023-06-04T10:18:40;26.50;72.80
15967;DHT22;15175;48.154;11.534;2023-06-04T10:21:08;26.60;74.30
15967;DHT22;15175;48.154;11.534;2023-06-04T10:23:37;26.60;74.00
15967;DHT22;15175;48.154;11.534;2023-06-04T10:26:05;26.80;71.50
15967;DHT22;15175;48.154;11.534;2023-06-04T10:28:32;26.70;71.70
15967;DHT22;15175;48.154;11.534;2023-06-04T10:31:00;26.70;72.30
15967;DHT22;15175;48.154;11.534;2023-06-04T10:33:27;26.90;72.50
15967;DHT22;15175;48.154;11.534;2023-06-04T10:35:55;27.10;71.90
15967;DHT22;15175;48.154;11.534;2023-06-04T10:38:22;27.10;71.50
15967;DHT22;15175;48.154;11.534;2023-06-04T10:40:51;26.90;71.40
15967;DHT22;15175;48.154;11.534;2023-06-04T10:43:18;26.60;71.60
15967;DHT22;15175;48.154;11.534;2023-06-04T10:45:46;26.60;72.00
15967;DHT22;15175;48.154;11.534;2023-06-04T10:48:13;26.80;73.30
15967;DHT22;15175;48.154;11.534;2023-06-04T10:50:50;27.00;71.10
15967;DHT22;15175;48.154;11.534;2023-06-04T10:53:18;26.80;71.70
15967;DHT22;15175;48.154;11.534;2023-06-04T10:55:47;26.90;71.50
15967;DHT22;15175;48.154;11.534;2023-06-04T10:58:16;27.20;72.60
15967;DHT22;15175;48.154;11.534;2023-06-04T11:00:44;27.40;71.50
15967;DHT22;15175;48.154;11.534;2023-06-04T11:03:14;27.40;70.70
15967;DHT22;15175;48.154;11.534;2023-06-04T11:05:43;27.60;70.00
15967;DHT22;15175;48.154;11.534;2023-06-04T11:08:11;27.30;70.00
15967;DHT22;15175;48.154;11.534;2023-06-04T11:10:41;27.20;70.30
15967;DHT22;15175;48.154;11.534;2023-06-04T11:13:09;27.20;70.00
15967;DHT22;15175;48.154;11.534;2023-06-04T11:15:42;27.20;70.40
15967;DHT22;15175;48.154;11.534;2023-06-04T11:18:14;26.90;70.40
15967;DHT22;15175;48.154;11.534;2023-06-04T11:20:43;26.60;70.10
15967;DHT22;15175;48.154;11.534;2023-06-04T11:23:11;26.60;71.60
15967;DHT22;15175;48.154;11.534;2023-06-04T11:25:39;26.70;71.70
15967;DHT22;15175;48.154;11.534;2023-06-04T11:28:08;26.80;71.60
15967;DHT22;15175;48.154;11.534;2023-06-04T11:30:35;27.00;71.40
15967;DHT22;15175;48.154;11.534;2023-06-04T11:33:05;27.10;70.50
15967;DHT22;15175;48.154;11.534;2023-06-04T11:35:40;27.20;71.20
15967;DHT22;15175;48.154;11.534;2023-06-04T11:38:09;27.40;70.10
15967;DHT22;15175;48.154;11.534;2023-06-04T11:40:36;27.40;71.10
15967;DHT22;15175;48.154;11.534;2023-06-04T11:43:03;27.30;69.60
15967;DHT22;15175;48.154;11.534;2023-06-04T11:45:30;27.20;69.50
15967;DHT22;15175;48.154;11.534;2023-06-04T11:47:58;27.30;70.00
15967;DHT22;15175;48.154;11.534;2023-06-04T11:50:28;27.00;68.50
15967;DHT22;15175;48.154;11.534;2023-06-04T11:52:56;26.50;70.00
15967;DHT22;15175;48.154;11.534;2023-06-04T11:55:23;26.30;71.20
15967;DHT22;15175;48.154;11.534;2023-06-04T11:57:51;25.90;71.30
15967;DHT22;15175;48.154;11.534;2023-06-04T12:00:18;25.70;71.70
15967;DHT22;15175;48.154;11.534;2023-06-04T12:02:50;25.70;72.10
15967;DHT22;15175;48.154;11.534;2023-06-04T12:05:19;25.80;72.60
15967;DHT22;15175;48.154;11.534;2023-06-04T12:07:50;25.90;71.30
15967;DHT22;15175;48.154;11.534;2023-06-04T12:10:18;26.00;72.00
15967;DHT22;15175;48.154;11.534;2023-06-04T12:12:45;26.20;72.20
15967;DHT22;15175;48.154;11.534;2023-06-04T12:15:19;26.40;70.40
15967;DHT22;15175;48.154;11.534;2023-06-04T12:17:50;26.60;69.80
15967;DHT22;15175;48.154;11.534;2023-06-04T12:20:18;26.50;70.20
15967;DHT22;15175;48.154;11.534;2023-06-04T12:22:46;26.50;69.50
15967;DHT22;15175;48.154;11.534;2023-06-04T12:25:28;26.30;69.30
15967;DHT22;15175;48.154;11.534;2023-06-04T12:27:56;25.90;69.40
15967;DHT22;15175;48.154;11.534;2023-06-04T12:30:23;25.70;70.30
15967;DHT22;15175;48.154;11.534;2023-06-04T12:32:50;25.50;70.10
15967;DHT22;15175;48.154;11.534;2023-06-04T12:35:17;25.30;70.70
15967;DHT22;15175;48.154;11.534;2023-06-04T12:37:44;25.10;70.60
15967;DHT22;15175;48.154;11.534;2023-06-04T12:40:11;25.10;71.10
15967;DHT22;15175;48.154;11.534;2023-06-04T12:42:41;25.10;72.20
15967;DHT22;15175;48.154;11.534;2023-06-04T12:45:10;25.30;71.20
15967;DHT22;15175;48.154;11.534;2023-06-04T12:47:39;25.50;70.90
15967;DHT22;15175;48.154;11.534;2023-06-04T12:50:08;25.60;70.50
15967;DHT22;15175;48.154;11.534;2023-06-04T12:52:36;25.60;70.30
15967;DHT22;15175;48.154;11.534;2023-06-04T12:55:03;25.70;71.30
15967;DHT22;15175;48.154;11.534;2023-06-04T12:57:31;25.80;69.60
15967;DHT22;15175;48.154;11.534;2023-06-04T12:59:59;25.90;68.00
15967;DHT22;15175;48.154;11.534;2023-06-04T13:02:26;25.90;68.00
15967;DHT22;15175;48.154;11.534;2023-06-04T13:04:54;26.00;67.90
15967;DHT22;15175;48.154;11.534;2023-06-04T13:07:21;25.70;67.50
15967;DHT22;15175;48.154;11.534;2023-06-04T13:09:49;25.40;67.50
15967;DHT22;15175;48.154;11.534;2023-06-04T13:12:16;25.20;68.40
15967;DHT22;15175;48.154;11.534;2023-06-04T13:14:43;24.70;68.40
15967;DHT22;15175;48.154;11.534;2023-06-04T13:17:12;24.50;69.90
15967;DHT22;15175;48.154;11.534;2023-06-04T13:19:39;24.40;71.60
15967;DHT22;15175;48.154;11.534;2023-06-04T13:22:06;24.40;72.50
15967;DHT22;15175;48.154;11.534;2023-06-04T13:24:35;24.30;73.50
15967;DHT22;15175;48.154;11.534;2023-06-04T13:27:02;24.10;73.20
15967;DHT22;15175;48.154;11.534;2023-06-04T13:29:29;24.00;73.80
15967;DHT22;15175;48.154;11.534;2023-06-04T13:31:59;23.90;73.80
15967;DHT22;15175;48.154;11.534;2023-06-04T13:34:28;23.90;74.10
15967;DHT22;15175;48.154;11.534;2023-06-04T13:36:57;24.10;74.10
15967;DHT22;15175;48.154;11.534;2023-06-04T13:39:24;24.30;73.30
15967;DHT22;15175;48.154;11.534;2023-06-04T13:41:51;24.40;73.00
15967;DHT22;15175;48.154;11.534;2023-06-04T13:44:18;24.50;72.60
15967;DHT22;15175;48.154;11.534;2023-06-04T13:46:46;24.60;71.80
15967;DHT22;15175;48.154;11.534;2023-06-04T13:49:13;24.60;71.20
15967;DHT22;15175;48.154;11.534;2023-06-04T13:51:42;24.50;70.90
15967;DHT22;15175;48.154;11.534;2023-06-04T13:54:09;24.50;70.60
15967;DHT22;15175;48.154;11.534;2023-06-04T13:56:36;24.40;70.50
15967;DHT22;15175;48.154;11.534;2023-06-04T13:59:04;24.30;70.10
15967;DHT22;15175;48.154;11.534;2023-06-04T14:01:31;24.20;71.40
15967;DHT22;15175;48.154;11.534;2023-06-04T14:03:59;24.10;72.80
15967;DHT22;15175;48.154;11.534;2023-06-04T14:06:26;24.10;73.90
15967;DHT22;15175;48.154;11.534;2023-06-04T14:08:54;24.20;73.00
15967;DHT22;15175;48.154;11.534;2023-06-04T14:11:21;24.20;70.80
15967;DHT22;15175;48.154;11.534;2023-06-04T14:13:48;24.20;71.50
15967;DHT22;15175;48.154;11.534;2023-06-04T14:16:16;24.20;72.50
15967;DHT22;15175;48.154;11.534;2023-06-04T14:18:43;24.20;73.10
15967;DHT22;15175;48.154;11.534;2023-06-04T14:21:10;24.20;73.70
15967;DHT22;15175;48.154;11.534;2023-06-04T14:23:37;24.20;73.00
15967;DHT22;15175;48.154;11.534;2023-06-04T14:26:05;24.10;72.10
15967;DHT22;15175;48.154;11.534;2023-06-04T14:28:33;24.00;71.20
15967;DHT22;15175;48.154;11.534;2023-06-04T14:31:00;24.00;72.10
15967;DHT22;15175;48.154;11.534;2023-06-04T14:33:27;23.90;71.00
15967;DHT22;15175;48.154;11.534;2023-06-04T14:35:54;23.90;72.40
15967;DHT22;15175;48.154;11.534;2023-06-04T14:38:22;23.80;73.40
15967;DHT22;15175;48.154;11.534;2023-06-04T14:40:49;23.80;73.40
15967;DHT22;15175;48.154;11.534;2023-06-04T14:43:17;23.70;73.80
15967;DHT22;15175;48.154;11.534;2023-06-04T14:45:44;23.90;73.90
15967;DHT22;15175;48.154;11.534;2023-06-04T14:48:11;23.90;75.00
15967;DHT22;15175;48.154;11.534;2023-06-04T14:50:38;23.90;74.70
15967;DHT22;15175;48.154;11.534;2023-06-04T14:53:06;23.90;74.40
15967;DHT22;15175;48.154;11.534;2023-06-04T14:55:33;23.90;74.90
15967;DHT22;15175;48.154;11.534;2023-06-04T14:58:00;23.90;75.40
15967;DHT22;15175;48.154;11.534;2023-06-04T15:00:30;23.80;75.40
15967;DHT22;15175;48.154;11.534;2023-06-04T15:02:57;23.70;74.80
15967;DHT22;15175;48.154;11.534;2023-06-04T15:05:25;23.60;75.30
15967;DHT22;15175;48.154;11.534;2023-06-04T15:07:53;23.50;75.60
15967;DHT22;15175;48.154;11.534;2023-06-04T15:10:21;23.60;76.00
15967;DHT22;15175;48.154;11.534;2023-06-04T15:12:50;23.80;76.20
15967;DHT22;15175;48.154;11.534;2023-06-04T15:15:22;23.30;76.40
15967;DHT22;15175;48.154;11.534;2023-06-04T15:17:51;23.10;77.00
15967;DHT22;15175;48.154;11.534;2023-06-04T15:20:19;23.20;76.50
15967;DHT22;15175;48.154;11.534;2023-06-04T15:22:46;23.20;76.00